Time;durP1;ratioP1;P1;durP2;ratioP2;P2;SDS_P1;SDS_P2;PMS_P1;PMS_P2;Temp;Humidity;BMP_temperature;BMP_pressure;BME280_temperature;BME280_humidity;BME280_pressure;Samples;Min_cycle;Max_cycle;Signal;HPM_P1;HPM_P2
2022/03/24 00:00:27;;;;;;;18.77;6.30;;;;;;;2.57;54.81;100629.09;5093948;28;20036;-66
2022/03/24 00:02:57;;;;;;;15.07;6.38;;;;;;;2.59;54.83;100627.50;5093475;28;20063;-66
2022/03/24 00:05:27;;;;;;;9.95;5.82;;;;;;;2.51;54.63;100623.78;5093592;28;20048;-66
2022/03/24 00:07:56;;;;;;;12.25;5.80;;;;;;;2.57;54.75;100621.53;5093743;28;20066;-66
2022/03/24 00:10:25;;;;;;;11.23;5.32;;;;;;;2.58;54.21;100620.75;5094340;28;20036;-66
2022/03/24 00:12:55;;;;;;;13.88;5.25;;;;;;;2.58;54.51;100614.84;5093739;28;20110;-66
2022/03/24 00:15:25;;;;;;;15.82;5.47;;;;;;;2.67;53.92;100611.09;5093794;28;20045;-66
2022/03/24 00:17:54;;;;;;;11.55;5.60;;;;;;;2.71;54.36;100612.09;5093693;28;20444;-66
2022/03/24 00:20:25;;;;;;;12.00;5.33;;;;;;;2.55;54.36;100618.09;5093432;28;20057;-65
2022/03/24 00:22:54;;;;;;;9.32;4.55;;;;;;;2.46;55.07;100609.25;5093733;28;20043;-66
2022/03/24 00:25:24;;;;;;;10.32;5.03;;;;;;;2.59;54.40;100604.00;5093289;28;20052;-66
2022/03/24 00:27:53;;;;;;;11.55;5.78;;;;;;;2.52;54.30;100595.25;5093280;28;20048;-65
2022/03/24 00:30:22;;;;;;;11.33;4.67;;;;;;;2.35;54.75;100581.03;5093268;28;20500;-66
2022/03/24 00:32:51;;;;;;;12.73;4.60;;;;;;;2.36;55.09;100599.53;5092135;28;20086;-66
2022/03/24 00:35:21;;;;;;;10.87;5.07;;;;;;;2.31;55.45;100601.84;5093175;28;20036;-65
2022/03/24 00:37:52;;;;;;;11.20;5.03;;;;;;;2.41;54.80;100598.97;5093212;28;20367;-66
2022/03/24 00:40:21;;;;;;;10.60;5.25;;;;;;;2.49;55.04;100595.16;5093558;28;20040;-66
2022/03/24 00:42:50;;;;;;;10.88;4.55;;;;;;;2.66;53.93;100599.25;5093281;28;20040;-66
2022/03/24 00:45:20;;;;;;;11.77;6.05;;;;;;;2.61;54.15;100597.34;5093429;28;20040;-66
2022/03/24 00:47:49;;;;;;;11.40;4.68;;;;;;;2.53;53.49;100579.38;5093105;28;20135;-66
2022/03/24 00:50:18;;;;;;;7.63;3.27;;;;;;;2.72;53.81;100589.47;5093416;28;20044;-66
2022/03/24 00:52:51;;;;;;;9.68;3.92;;;;;;;2.72;53.27;100584.44;5093530;28;20044;-66
2022/03/24 00:55:21;;;;;;;11.55;5.28;;;;;;;2.78;53.26;100590.56;5092977;28;20131;-66
2022/03/24 00:57:52;;;;;;;10.35;4.28;;;;;;;2.57;53.88;100593.81;5091928;28;20044;-66
2022/03/24 01:00:25;;;;;;;12.90;4.47;;;;;;;2.34;54.46;100586.88;5094814;28;20040;-66
2022/03/24 01:02:56;;;;;;;10.10;4.18;;;;;;;2.18;54.96;100586.97;5096791;28;20501;-66
2022/03/24 01:05:27;;;;;;;7.88;4.00;;;;;;;2.18;55.28;100586.97;5097160;28;20075;-66
2022/03/24 01:07:58;;;;;;;13.30;4.57;;;;;;;2.21;55.78;100584.56;5095407;28;20093;-66
2022/03/24 01:10:27;;;;;;;11.95;5.68;;;;;;;2.13;55.64;100580.84;5096997;28;20048;-65
2022/03/24 01:12:59;;;;;;;11.10;4.20;;;;;;;2.11;55.41;100579.91;5096544;28;20051;-66
2022/03/24 01:15:30;;;;;;;9.32;4.18;;;;;;;2.10;55.57;100583.22;5095568;28;20048;-65
2022/03/24 01:18:00;;;;;;;9.63;4.32;;;;;;;2.00;56.15;100576.00;5096500;28;20052;-66
2022/03/24 01:20:30;;;;;;;9.18;3.97;;;;;;;1.70;56.69;100579.59;5096766;28;20489;-66
2022/03/24 01:23:02;;;;;;;9.43;3.80;;;;;;;1.74;56.88;100572.25;5096399;28;20135;-66
2022/03/24 01:25:31;;;;;;;11.07;3.72;;;;;;;1.73;57.20;100569.66;5096569;28;20047;-65
2022/03/24 01:28:01;;;;;;;7.55;3.97;;;;;;;1.60;56.96;100562.31;5096238;28;20047;-66
2022/03/24 01:30:30;;;;;;;10.43;3.55;;;;;;;1.69;57.54;100552.69;5096173;28;20406;-66
2022/03/24 01:32:59;;;;;;;10.07;3.75;;;;;;;1.58;57.42;100558.84;5096189;28;20119;-66
2022/03/24 01:35:28;;;;;;;7.95;3.75;;;;;;;1.51;57.46;100562.75;5094733;28;20062;-65
2022/03/24 01:37:57;;;;;;;12.23;3.88;;;;;;;1.48;57.62;100552.53;5096042;28;20048;-66
2022/03/24 01:40:28;;;;;;;8.70;3.83;;;;;;;1.47;57.93;100559.97;5096099;28;20044;-66
2022/03/24 01:42:57;;;;;;;15.18;4.57;;;;;;;1.56;57.81;100546.19;5096311;28;20284;-66
2022/03/24 01:45:28;;;;;;;15.85;6.43;;;;;;;1.72;57.68;100543.66;5094825;28;20075;-66
2022/03/24 01:47:57;;;;;;;19.50;7.32;;;;;;;1.69;57.96;100547.66;5095830;28;20032;-66
2022/03/24 01:50:27;;;;;;;11.52;5.15;;;;;;;1.70;57.31;100549.41;5095800;28;20489;-66
2022/03/24 01:52:56;;;;;;;12.55;5.65;;;;;;;1.71;57.29;100551.09;5095901;28;20095;-65
2022/03/24 01:55:25;;;;;;;9.40;4.50;;;;;;;1.83;56.81;100544.13;5096093;28;20493;-66
2022/03/24 01:57:56;;;;;;;15.07;5.15;;;;;;;1.67;57.30;100546.72;5095656;28;20036;-66
2022/03/24 02:00:25;;;;;;;8.18;3.97;;;;;;;1.62;57.23;100538.09;5096018;28;20071;-66
2022/03/24 02:02:55;;;;;;;7.80;3.10;;;;;;;1.64;57.39;100534.00;5095631;28;20040;-66
2022/03/24 02:05:24;;;;;;;10.15;3.72;;;;;;;1.54;56.87;100532.69;5095602;28;20307;-66
2022/03/24 02:07:53;;;;;;;6.20;3.67;;;;;;;1.51;57.45;100535.06;5095760;28;20036;-66
2022/03/24 02:10:22;;;;;;;7.70;3.33;;;;;;;1.49;57.30;100531.59;5094478;28;20072;-66
2022/03/24 02:12:58;;;;;;;8.80;3.03;;;;;;;1.60;57.57;100527.97;5093893;28;20447;-66
2022/03/24 02:15:29;;;;;;;8.35;4.00;;;;;;;1.60;57.49;100517.03;5094211;28;20048;-66
2022/03/24 02:17:57;;;;;;;;;;;;;;;1.57;57.37;100524.41;5094787;28;20478;-66
2022/03/24 02:20:28;;;;;;;10.00;3.17;;;;;;;1.33;58.26;100522.44;5094086;28;19920;-66
2022/03/24 02:22:59;;;;;;;7.15;3.42;;;;;;;1.18;58.55;100519.16;5094050;28;20052;-66
2022/03/24 02:25:31;;;;;;;7.97;3.20;;;;;;;1.27;58.50;100524.66;5095217;28;20051;-66
2022/03/24 02:28:03;;;;;;;7.57;3.47;;;;;;;1.32;58.64;100517.31;5095095;28;20082;-66
2022/03/24 02:30:32;;;;;;;6.82;3.50;;;;;;;1.31;58.74;100523.16;5094786;28;20493;-66
2022/03/24 02:33:00;;;;;;;9.97;3.87;;;;;;;1.39;58.68;100514.34;5095013;28;20044;-67
2022/03/24 02:35:29;;;;;;;11.30;3.53;;;;;;;1.52;58.13;100514.13;5095051;28;20072;-67
2022/03/24 02:38:00;;;;;;;7.75;3.35;;;;;;;1.63;57.43;100515.50;5094911;28;20447;-66
2022/03/24 02:40:28;;;;;;;10.32;3.13;;;;;;;1.57;58.21;100506.81;5095250;28;20390;-66
2022/03/24 02:42:57;;;;;;;8.43;3.60;;;;;;;1.59;58.18;100510.25;5094858;28;20066;-67
2022/03/24 02:45:26;;;;;;;5.38;2.28;;;;;;;1.42;57.93;100511.97;5095176;28;20036;-67
2022/03/24 02:47:55;;;;;;;4.72;2.25;;;;;;;1.30;58.44;100517.25;5095030;28;20494;-67
2022/03/24 02:50:24;;;;;;;7.47;3.28;;;;;;;1.13;58.68;100517.19;5094562;28;20036;-66
2022/03/24 02:53:00;;;;;;;7.82;3.65;;;;;;;1.25;58.47;100513.66;5094649;28;20043;-66
2022/03/24 02:55:30;;;;;;;8.02;3.65;;;;;;;1.35;58.39;100513.31;5094967;28;20064;-66
2022/03/24 02:57:58;;;;;;;10.70;3.78;;;;;;;1.50;57.91;100509.81;5095135;28;20405;-66
2022/03/24 03:00:27;;;;;;;9.50;3.38;;;;;;;1.50;57.72;100509.81;5094473;28;20126;-67
2022/03/24 03:02:56;;;;;;;9.20;4.07;;;;;;;1.26;58.28;100510.38;5094783;28;20370;-67
2022/03/24 03:05:26;;;;;;;6.22;2.75;;;;;;;1.27;58.45;100507.03;5094770;28;20040;-67
2022/03/24 03:07:54;;;;;;;11.13;4.40;;;;;;;1.13;58.78;100507.16;5094695;28;20044;-67
2022/03/24 03:10:25;;;;;;;8.27;3.53;;;;;;;1.16;58.85;100508.19;5094180;28;20036;-66
2022/03/24 03:12:54;;;;;;;8.68;3.53;;;;;;;1.21;58.61;100511.78;5094616;28;20292;-67
2022/03/24 03:15:23;;;;;;;8.70;3.67;;;;;;;1.17;58.51;100519.97;5094233;28;20052;-66
2022/03/24 03:17:52;;;;;;;12.57;3.58;;;;;;;1.08;59.13;100516.97;5094535;28;20081;-67
2022/03/24 03:20:21;;;;;;;8.87;4.03;;;;;;;1.06;58.97;100495.94;5094424;28;20044;-67
2022/03/24 03:22:50;;;;;;;7.93;3.13;;;;;;;1.31;58.82;100518.13;5094148;28;20493;-67
2022/03/24 03:25:22;;;;;;;9.98;3.53;;;;;;;0.90;58.74;100463.31;5093848;28;20560;-67
2022/03/24 03:27:53;;;;;;;8.20;3.50;;;;;;;1.14;58.66;100509.75;5094383;28;20052;-67
2022/03/24 03:30:22;;;;;;;10.27;3.08;;;;;;;0.97;59.07;100505.53;5093770;28;20052;-66
2022/03/24 03:32:51;;;;;;;7.20;3.13;;;;;;;1.07;59.34;100506.84;5093961;28;20094;-67
2022/03/24 03:35:20;;;;;;;15.00;2.97;;;;;;;0.99;59.48;100508.13;5093958;28;20051;-66
2022/03/24 03:37:48;;;;;;;9.43;3.40;;;;;;;1.07;59.34;100502.69;5093885;28;20051;-67
2022/03/24 03:40:17;;;;;;;4.53;2.17;;;;;;;1.15;59.23;100511.47;5094086;28;20047;-67
2022/03/24 03:42:50;;;;;;;5.18;2.38;;;;;;;1.06;59.05;100515.16;5093850;28;20097;-67
2022/03/24 03:45:20;;;;;;;7.88;3.10;;;;;;;1.06;59.21;100521.06;5093841;28;20109;-67
2022/03/24 03:47:49;;;;;;;8.38;2.88;;;;;;;1.04;59.23;100522.66;5093855;28;20126;-67
2022/03/24 03:50:19;;;;;;;9.25;3.22;;;;;;;0.86;59.75;100511.69;5093649;28;20101;-67
2022/03/24 03:52:48;;;;;;;6.53;2.25;;;;;;;0.84;59.74;100518.25;5093649;28;20043;-67
2022/03/24 03:55:17;;;;;;;7.63;3.00;;;;;;;0.68;60.01;100493.16;5093699;28;20070;-67
2022/03/24 03:57:46;;;;;;;7.38;3.40;;;;;;;0.91;59.74;100525.31;5093665;28;20532;-66
2022/03/24 04:02:57;;;;;;;9.70;4.20;;;;;;;0.67;60.37;100512.38;5093790;28;20048;-67
2022/03/24 04:05:27;;;;;;;7.38;3.88;;;;;;;0.74;60.07;100505.16;5093616;28;20127;-67
2022/03/24 04:07:56;;;;;;;12.63;4.85;;;;;;;0.81;59.89;100510.59;5093545;28;20040;-67
2022/03/24 04:10:27;;;;;;;11.57;5.18;;;;;;;0.79;60.14;100506.25;5093420;28;20158;-67
2022/03/24 04:12:56;;;;;;;9.55;4.72;;;;;;;0.76;60.10;100519.53;5094027;28;20445;-67
2022/03/24 04:15:25;;;;;;;13.38;5.07;;;;;;;0.45;60.83;100518.72;5093706;28;20535;-67
2022/03/24 04:17:55;;;;;;;7.53;4.00;;;;;;;0.75;60.63;100521.94;5093451;28;20118;-67
2022/03/24 04:20:24;;;;;;;12.52;4.60;;;;;;;0.70;60.10;100528.41;5093472;28;20074;-67
2022/03/24 04:22:54;;;;;;;10.57;4.90;;;;;;;0.85;60.04;100520.00;5093560;28;20040;-67
2022/03/24 04:25:24;;;;;;;17.95;7.22;;;;;;;0.64;60.18;100509.72;5093713;28;20067;-67
2022/03/24 04:27:53;;;;;;;;;;;;;;;0.73;60.16;100494.25;5094073;28;20044;-67
2022/03/24 04:30:22;;;;;;;39.38;13.18;;;;;;;0.80;60.14;100498.78;5093210;28;19920;-67
2022/03/24 04:32:51;;;;;;;36.63;12.75;;;;;;;0.83;59.57;100491.41;5093388;28;20050;-67
2022/03/24 04:35:22;;;;;;;32.22;12.05;;;;;;;0.74;59.99;100490.09;5094979;28;20044;-67
2022/03/24 04:37:52;;;;;;;32.05;11.82;;;;;;;0.68;59.97;100505.69;5097549;28;20036;-67
2022/03/24 04:40:21;;;;;;;29.70;10.75;;;;;;;0.43;60.71;100495.19;5097249;28;20048;-67
2022/03/24 04:42:52;;;;;;;16.90;6.40;;;;;;;0.62;60.56;100500.38;5097005;28;20070;-67
2022/03/24 04:45:23;;;;;;;12.60;5.28;;;;;;;0.61;60.44;100499.50;5097190;28;20058;-67
2022/03/24 04:47:52;;;;;;;13.75;4.90;;;;;;;0.72;60.03;100487.47;5097096;28;20054;-67
2022/03/24 04:50:23;;;;;;;12.05;5.00;;;;;;;0.64;60.15;100486.25;5096910;28;20044;-67
2022/03/24 04:52:53;;;;;;;11.63;4.57;;;;;;;0.66;60.01;100492.19;5096944;28;20127;-68
2022/03/24 04:55:22;;;;;;;10.02;4.75;;;;;;;0.54;60.41;100479.88;5097117;28;20047;-67
2022/03/24 04:57:51;;;;;;;9.95;4.70;;;;;;;0.74;60.37;100485.94;5096854;28;20044;-67
2022/03/24 05:00:19;;;;;;;11.20;5.57;;;;;;;0.76;60.13;100479.34;5096901;28;20498;-67
2022/03/24 05:02:48;;;;;;;10.27;5.20;;;;;;;0.97;60.10;100480.41;5096743;28;20044;-67
2022/03/24 05:05:18;;;;;;;9.77;4.80;;;;;;;1.01;59.54;100482.28;5096640;28;20272;-67
2022/03/24 05:07:48;;;;;;;10.13;4.57;;;;;;;1.01;59.84;100478.94;5096769;28;20766;-67
2022/03/24 05:10:17;;;;;;;15.85;8.55;;;;;;;1.06;59.84;100485.88;5096583;28;20312;-67
2022/03/24 05:12:46;;;;;;;47.43;17.97;;;;;;;1.24;59.29;100486.81;5096621;28;20038;-67
2022/03/24 05:15:15;;;;;;;51.40;17.17;;;;;;;1.48;58.15;100483.75;5097078;28;20388;-68
2022/03/24 05:17:44;;;;;;;41.80;15.15;;;;;;;1.50;58.32;100482.16;5096495;28;20285;-67
2022/03/24 05:20:14;;;;;;;27.93;11.13;;;;;;;1.59;57.84;100478.44;5096474;28;20040;-68
2022/03/24 05:22:43;;;;;;;21.55;7.47;;;;;;;1.74;57.71;100488.34;5096374;28;20052;-67
2022/03/24 05:25:14;;;;;;;12.07;4.60;;;;;;;1.78;57.40;100482.66;5096308;28;20053;-67
2022/03/24 05:27:43;;;;;;;9.85;4.40;;;;;;;1.69;57.67;100487.28;5096318;28;20068;-67
2022/03/24 05:30:13;;;;;;;10.70;4.05;;;;;;;1.66;57.53;100489.63;5096256;28;20048;-68
2022/03/24 05:32:43;;;;;;;11.20;4.88;;;;;;;1.69;57.84;100489.78;5096537;28;20414;-67
2022/03/24 05:35:13;;;;;;;11.10;3.70;;;;;;;1.79;57.28;100494.47;5096125;28;20040;-67
2022/03/24 05:37:42;;;;;;;8.63;4.40;;;;;;;2.00;57.35;100490.44;5096108;28;20050;-67
2022/03/24 05:40:14;;;;;;;9.10;4.22;;;;;;;2.34;57.10;100498.72;5096373;28;20063;-67
2022/03/24 05:42:44;;;;;;;7.95;4.25;;;;;;;2.38;56.53;100495.53;5096056;28;20044;-66
2022/03/24 05:45:13;;;;;;;10.10;4.67;;;;;;;2.41;56.85;100493.16;5095739;28;20482;-67
2022/03/24 05:47:42;;;;;;;11.70;4.20;;;;;;;2.43;56.88;100494.09;5094829;28;20036;-67
2022/03/24 05:50:14;;;;;;;8.25;4.35;;;;;;;2.67;56.66;100494.31;5094747;28;20076;-67
2022/03/24 05:53:05;;;;;;;9.38;3.88;;;;;;;3.11;56.10;100498.72;5095802;28;20123;-66
2022/03/24 05:55:37;;;;;;;10.10;4.45;;;;;;;3.54;55.06;100493.78;5095696;28;20036;-66
2022/03/24 05:58:06;;;;;;;10.95;4.97;;;;;;;3.76;54.65;100493.81;5096141;28;20506;-66
2022/03/24 06:00:38;;;;;;;12.48;5.32;;;;;;;4.05;53.17;100501.72;5095938;28;20044;-66
2022/03/24 06:03:07;;;;;;;16.38;6.00;;;;;;;4.25;52.73;100501.63;5095699;28;20070;-66
2022/03/24 06:05:40;;;;;;;12.55;4.97;;;;;;;4.41;51.35;100504.78;5095811;28;20490;-66
2022/03/24 06:08:11;;;;;;;21.27;6.75;;;;;;;4.54;50.69;100511.13;5095541;28;20048;-67
2022/03/24 06:10:42;;;;;;;9.88;5.10;;;;;;;4.73;50.98;100508.44;5095356;28;20044;-67
2022/03/24 06:13:11;;;;;;;15.38;5.57;;;;;;;5.02;50.02;100504.41;5095769;28;20047;-66
2022/03/24 06:15:40;;;;;;;12.35;5.95;;;;;;;4.65;49.85;100504.81;5095303;28;20044;-66
2022/03/24 06:18:09;;;;;;;10.43;4.90;;;;;;;4.97;50.85;100496.66;5095284;28;20082;-66
2022/03/24 06:20:39;;;;;;;12.25;5.55;;;;;;;5.35;50.23;100496.28;5095295;28;20040;-68
2022/03/24 06:23:08;;;;;;;15.40;5.90;;;;;;;5.73;48.95;100491.63;5095202;28;20062;-68
2022/03/24 06:25:38;;;;;;;13.02;5.53;;;;;;;6.09;49.20;100487.72;5095178;28;20040;-67
2022/03/24 06:28:08;;;;;;;12.30;5.32;;;;;;;6.29;48.28;100473.94;5095032;28;20040;-67
2022/03/24 06:30:37;;;;;;;12.80;6.35;;;;;;;6.75;47.56;100483.69;5094859;28;20515;-67
2022/03/24 06:33:06;;;;;;;10.30;4.83;;;;;;;6.90;47.37;100479.06;5094881;28;20046;-67
2022/03/24 06:35:35;;;;;;;9.40;5.15;;;;;;;7.30;47.10;100481.78;5094859;28;20038;-67
2022/03/24 06:38:04;;;;;;;11.10;4.57;;;;;;;7.44;46.37;100479.59;5095056;28;20067;-67
2022/03/24 06:40:33;;;;;;;10.83;4.90;;;;;;;7.84;45.86;100482.28;5094821;28;20044;-67
2022/03/24 06:43:03;;;;;;;10.55;4.78;;;;;;;7.89;45.10;100483.19;5094850;28;20276;-67
2022/03/24 06:45:34;;;;;;;12.88;3.80;;;;;;;7.93;44.16;100482.47;5094555;28;20067;-67
2022/03/24 06:48:04;;;;;;;10.85;4.57;;;;;;;8.03;44.09;100481.00;5094772;28;20498;-67
2022/03/24 06:50:33;;;;;;;14.77;4.70;;;;;;;7.97;43.64;100484.25;5094630;28;20194;-68
2022/03/24 06:53:02;;;;;;;13.43;5.83;;;;;;;8.02;42.99;100480.13;5094859;28;20498;-67
2022/03/24 06:55:30;;;;;;;12.90;5.95;;;;;;;8.03;42.75;100489.47;5094568;28;20040;-67
2022/03/24 06:58:00;;;;;;;9.93;5.30;;;;;;;8.17;42.85;100477.06;5094597;28;20036;-67
2022/03/24 07:00:29;;;;;;;10.50;4.72;;;;;;;8.29;43.04;100481.59;5094736;28;20044;-67
2022/03/24 07:03:01;;;;;;;10.82;5.35;;;;;;;8.41;42.61;100476.75;5094507;28;20048;-67
2022/03/24 07:05:31;;;;;;;9.88;4.90;;;;;;;8.76;42.18;100470.66;5094392;28;20132;-67
2022/03/24 07:08:02;;;;;;;11.40;5.77;;;;;;;8.88;41.57;100480.25;5094538;28;20127;-67
2022/03/24 07:10:31;;;;;;;10.95;5.43;;;;;;;8.85;42.59;100473.41;5095422;28;20277;-67
2022/03/24 07:13:00;;;;;;;10.30;5.47;;;;;;;8.81;41.75;100483.47;5094171;28;20542;-67
2022/03/24 07:15:29;;;;;;;10.87;5.53;;;;;;;8.91;41.84;100483.69;5094264;28;20040;-67
2022/03/24 07:18:00;;;;;;;12.23;5.28;;;;;;;9.11;42.79;100479.84;5094026;28;20280;-67
2022/03/24 07:20:28;;;;;;;12.05;5.20;;;;;;;9.54;41.68;100478.00;5094121;28;20048;-68
2022/03/24 07:23:00;;;;;;;12.33;5.20;;;;;;;9.80;40.51;100476.72;5094086;28;20040;-67
2022/03/24 07:25:30;;;;;;;8.68;5.25;;;;;;;9.82;40.97;100472.50;5094555;28;20342;-68
2022/03/24 07:27:58;;;;;;;11.13;5.63;;;;;;;10.04;41.02;100464.31;5094023;28;20478;-68
2022/03/24 07:30:28;;;;;;;9.60;5.35;;;;;;;10.39;40.58;100478.44;5093421;28;20076;-67
2022/03/24 07:32:57;;;;;;;11.63;5.47;;;;;;;10.53;40.00;100474.34;5093905;28;20119;-67
2022/03/24 07:35:29;;;;;;;;;;;;;;;10.75;40.20;100476.31;5094558;28;20439;-68
2022/03/24 07:37:58;;;;;;;11.18;5.18;;;;;;;10.84;39.81;100467.06;5094184;28;19923;-67
2022/03/24 07:40:28;;;;;;;13.15;4.95;;;;;;;10.97;39.94;100474.00;5094208;28;20093;-67
2022/03/24 07:42:58;;;;;;;12.65;5.95;;;;;;;10.99;39.13;100480.00;5093728;28;20048;-67
2022/03/24 07:45:27;;;;;;;14.48;5.40;;;;;;;11.45;39.44;100467.66;5093949;28;20044;-67
2022/03/24 07:48:11;;;;;;;9.88;5.25;;;;;;;11.82;38.92;100480.75;5093586;28;20123;-67
2022/03/24 07:50:43;;;;;;;9.35;5.78;;;;;;;11.97;38.51;100471.47;5102355;28;20118;-67
2022/03/24 07:53:30;;;;;;;10.05;5.20;;;;;;;12.19;37.91;100471.63;5093529;28;20040;-68
2022/03/24 07:56:01;;;;;;;12.02;5.35;;;;;;;12.27;36.69;100470.78;5093499;28;20048;-67
2022/03/24 07:58:30;;;;;;;8.80;4.45;;;;;;;12.48;36.76;100465.78;5093658;28;20040;-67
2022/03/24 08:00:59;;;;;;;11.07;5.40;;;;;;;12.88;36.91;100461.66;5093846;28;20502;-67
2022/03/24 08:03:29;;;;;;;8.80;4.82;;;;;;;13.00;36.22;100461.69;5093058;28;20055;-67
2022/03/24 08:06:01;;;;;;;10.97;5.17;;;;;;;13.16;36.05;100458.31;5092891;28;20126;-68
2022/03/24 08:08:30;;;;;;;12.25;5.18;;;;;;;13.56;35.40;100455.75;5093783;28;20494;-68
2022/03/24 08:10:59;;;;;;;11.65;6.30;;;;;;;13.51;34.37;100462.63;5096216;28;20040;-67
2022/03/24 08:13:28;;;;;;;10.27;5.22;;;;;;;13.54;33.89;100457.47;5097641;28;20161;-68
2022/03/24 08:15:57;;;;;;;13.23;5.10;;;;;;;13.71;33.78;100453.19;5096988;28;20048;-68
2022/03/24 08:18:26;;;;;;;7.80;3.95;;;;;;;13.91;34.05;100457.44;5097669;28;20044;-68
2022/03/24 08:20:55;;;;;;;8.27;4.85;;;;;;;14.15;33.27;100446.25;5097519;28;20074;-68
2022/03/24 08:23:26;;;;;;;12.73;6.00;;;;;;;14.16;32.23;100453.09;5097452;28;20109;-67
2022/03/24 08:25:55;;;;;;;11.05;5.80;;;;;;;14.55;32.41;100453.00;5097363;28;20429;-67
2022/03/24 08:28:24;;;;;;;11.50;5.43;;;;;;;14.72;32.39;100443.47;5096847;28;20040;-68
2022/03/24 08:30:53;;;;;;;11.03;5.37;;;;;;;14.93;32.21;100449.34;5096402;28;20077;-67
2022/03/24 08:33:22;;;;;;;11.50;5.83;;;;;;;15.16;32.43;100444.94;5097237;28;20123;-68
2022/03/24 08:35:51;;;;;;;12.32;5.35;;;;;;;15.46;31.58;100452.44;5097515;28;20486;-67
2022/03/24 08:38:20;;;;;;;10.75;6.15;;;;;;;15.40;30.57;100443.00;5097287;28;20056;-68
2022/03/24 08:40:51;;;;;;;8.87;4.83;;;;;;;15.38;31.00;100443.88;5097248;28;20047;-67
2022/03/24 08:43:20;;;;;;;11.02;5.30;;;;;;;15.58;31.33;100456.63;5097163;28;20040;-67
2022/03/24 08:45:49;;;;;;;9.52;5.65;;;;;;;15.64;30.52;100448.88;5097170;28;20044;-67
2022/03/24 08:48:18;;;;;;;9.02;5.20;;;;;;;15.83;30.74;100458.97;5097057;28;20119;-67
2022/03/24 08:50:47;;;;;;;7.93;4.10;;;;;;;16.14;30.95;100448.34;5098191;28;20031;-67
2022/03/24 08:53:17;;;;;;;12.00;6.72;;;;;;;16.66;31.53;100445.16;5108237;28;20035;-67
2022/03/24 08:55:46;;;;;;;8.93;5.32;;;;;;;16.56;30.50;100445.28;5116956;28;20046;-67
2022/03/24 08:58:18;;;;;;;10.95;6.15;;;;;;;16.89;30.30;100442.28;5107297;28;20542;-67
2022/03/24 09:00:48;;;;;;;11.10;6.03;;;;;;;17.08;30.24;100441.16;5096619;28;20050;-67
2022/03/24 09:03:23;;;;;;;11.00;5.78;;;;;;;16.94;30.25;100443.03;5096908;28;20043;-67
2022/03/24 09:05:52;;;;;;;8.05;4.68;;;;;;;17.29;30.71;100438.22;5096661;28;20044;-67
2022/03/24 09:08:21;;;;;;;10.83;6.47;;;;;;;17.61;30.20;100440.28;5096550;28;20036;-67
2022/03/24 09:10:51;;;;;;;10.27;6.00;;;;;;;17.59;29.27;100436.88;5096613;28;20047;-67
2022/03/24 09:13:22;;;;;;;10.60;6.13;;;;;;;17.94;29.51;100433.69;5096970;28;20051;-67
2022/03/24 09:15:51;;;;;;;11.90;6.13;;;;;;;18.01;28.31;100432.69;5096426;28;20044;-67
2022/03/24 09:18:20;;;;;;;6.32;4.20;;;;;;;18.04;28.26;100433.47;5096544;28;20055;-67
2022/03/24 09:20:49;;;;;;;11.00;5.60;;;;;;;18.38;28.45;100431.06;5095723;28;20036;-68
2022/03/24 09:23:19;;;;;;;11.25;5.45;;;;;;;18.85;28.84;100431.84;5095284;28;20040;-67
2022/03/24 09:25:48;;;;;;;9.73;5.65;;;;;;;18.69;27.21;100437.34;5105107;28;20040;-67
2022/03/24 09:28:17;;;;;;;13.20;5.95;;;;;;;18.93;27.72;100424.78;5096213;28;20043;-67
2022/03/24 09:30:56;;;;;;;9.68;5.68;;;;;;;18.93;27.27;100424.78;5096092;28;20048;-67
2022/03/24 09:33:25;;;;;;;10.23;5.90;;;;;;;19.16;27.06;100422.47;5096116;28;20067;-67
2022/03/24 09:35:54;;;;;;;11.85;6.60;;;;;;;19.56;27.44;100428.41;5101191;28;20066;-67
2022/03/24 09:38:23;;;;;;;10.00;5.72;;;;;;;19.79;26.56;100423.50;5116708;28;20038;-67
2022/03/24 09:40:52;;;;;;;11.52;6.28;;;;;;;19.75;25.70;100418.41;5116869;28;20405;-67
2022/03/24 09:43:23;;;;;;;10.85;5.80;;;;;;;19.92;25.27;100419.69;5116337;28;20047;-67
2022/03/24 09:45:54;;;;;;;9.40;5.85;;;;;;;20.29;25.68;100410.94;5116361;28;20051;-67
2022/03/24 09:48:23;;;;;;;11.88;6.30;;;;;;;20.41;24.52;100410.56;5116398;28;20047;-67
2022/03/24 09:50:53;;;;;;;9.57;5.93;;;;;;;20.75;24.52;100416.47;5116120;28;20039;-67
2022/03/24 09:53:23;;;;;;;;;;;;;;;20.51;24.03;100419.78;5116550;28;20122;-67
2022/03/24 09:55:52;;;;;;;12.98;6.00;;;;;;;20.38;22.88;100421.03;5112744;28;19920;-67
2022/03/24 09:58:24;;;;;;;10.73;5.80;;;;;;;20.56;21.82;100410.97;5109316;28;20043;-68
2022/03/24 10:00:55;;;;;;;13.10;5.45;;;;;;;21.09;22.02;100414.53;5106294;28;20048;-68
2022/03/24 10:03:26;;;;;;;10.93;5.60;;;;;;;20.86;20.89;100422.16;5095588;28;20048;-68
2022/03/24 10:06:00;;;;;;;9.95;5.60;;;;;;;21.04;21.10;100412.97;5095882;28;20509;-68
2022/03/24 10:08:30;;;;;;;9.07;5.68;;;;;;;21.28;21.23;100417.41;5095502;28;20059;-68
2022/03/24 10:11:01;;;;;;;9.48;5.68;;;;;;;21.21;20.31;100415.91;5103493;28;20063;-68
2022/03/24 10:13:44;;;;;;;9.82;5.68;;;;;;;21.58;21.51;100415.53;5097757;28;20048;-68
2022/03/24 10:16:43;;;;;;;9.57;5.65;;;;;;;22.03;21.21;100408.75;5095500;28;20082;-68
2022/03/24 10:19:14;;;;;;;10.18;6.38;;;;;;;22.27;21.33;100402.66;5095627;28;20040;-68
2022/03/24 10:21:46;;;;;;;11.25;6.00;;;;;;;22.33;21.19;100412.00;5097778;28;20502;-68
2022/03/24 10:24:16;;;;;;;12.52;6.35;;;;;;;22.10;19.80;100407.63;5111803;28;20051;-68
2022/03/24 10:26:47;;;;;;;10.95;6.40;;;;;;;22.32;21.02;100405.94;5115667;28;20043;-68
2022/03/24 10:29:19;;;;;;;10.93;6.38;;;;;;;21.87;19.70;100407.59;5115989;28;20058;-68
2022/03/24 10:31:54;;;;;;;11.07;6.57;;;;;;;21.58;20.56;100415.53;5115357;28;20047;-68
2022/03/24 10:34:30;;;;;;;10.15;5.90;;;;;;;22.00;20.14;100411.50;5114695;28;20509;-68
2022/03/24 10:37:03;;;;;;;9.27;5.13;;;;;;;22.11;19.68;100398.94;5115372;28;20053;-68
2022/03/24 10:39:33;;;;;;;8.90;5.47;;;;;;;22.28;19.47;100399.16;5110146;28;20087;-68
2022/03/24 10:42:15;;;;;;;8.32;5.20;;;;;;;22.40;18.65;100398.72;5103477;28;20101;-68
2022/03/24 10:45:06;;;;;;;8.02;5.00;;;;;;;22.54;19.90;100396.44;5095299;28;20040;-68
2022/03/24 10:47:48;;;;;;;9.13;5.10;;;;;;;22.82;19.86;100398.00;5095070;28;20475;-68
2022/03/24 10:50:32;;;;;;;10.85;5.30;;;;;;;23.01;20.01;100401.59;5112835;28;20062;-68
2022/03/24 10:53:03;;;;;;;9.77;5.88;;;;;;;23.26;19.83;100402.28;5115006;28;20047;-68
2022/03/24 10:55:45;;;;;;;7.93;5.18;;;;;;;23.49;20.26;100402.19;5114954;28;20044;-68
2022/03/24 10:58:20;;;;;;;10.38;4.80;;;;;;;22.76;17.51;100398.22;5114886;28;20044;-68
2022/03/24 11:00:52;;;;;;;9.23;5.00;;;;;;;22.86;17.96;100402.19;5106009;28;20046;-68
2022/03/24 11:03:23;;;;;;;8.45;5.28;;;;;;;22.35;17.68;100400.63;5100145;28;20383;-68
2022/03/24 11:05:52;;;;;;;10.88;5.95;;;;;;;22.81;19.30;100404.13;5115171;28;20039;-68
2022/03/24 11:08:21;;;;;;;11.83;5.97;;;;;;;22.92;18.40;100402.78;5114822;28;20043;-68
2022/03/24 11:10:51;;;;;;;11.30;5.88;;;;;;;22.86;17.91;100391.78;5113346;28;20618;-69
2022/03/24 11:13:29;;;;;;;11.95;6.05;;;;;;;22.98;19.23;100393.88;5110167;28;20398;-68
2022/03/24 11:15:58;;;;;;;11.18;6.35;;;;;;;22.65;17.91;100386.47;5099760;28;20039;-68
2022/03/24 11:18:28;;;;;;;;;;;;;;;22.75;18.92;100383.53;5099837;28;20117;-68
2022/03/24 11:21:03;;;;;;;10.98;6.07;;;;;;;22.76;18.26;100385.22;5094635;28;20031;-68
2022/03/24 11:23:39;;;;;;;12.50;6.68;;;;;;;22.71;18.86;100382.81;5101945;28;20051;-68
2022/03/24 11:26:10;;;;;;;12.60;7.57;;;;;;;22.66;18.30;100384.72;5103039;28;20044;-68
2022/03/24 11:28:41;;;;;;;13.20;7.38;;;;;;;23.28;19.10;100375.25;5094591;28;20101;-68
2022/03/24 11:31:12;;;;;;;10.93;6.30;;;;;;;23.08;18.87;100363.97;5094060;28;20110;-68
2022/03/24 11:33:45;;;;;;;12.43;7.28;;;;;;;23.33;19.05;100372.44;5108962;28;20044;-68
2022/03/24 11:36:17;;;;;;;11.18;6.90;;;;;;;22.43;18.09;100366.53;5114685;28;20071;-68
2022/03/24 11:38:49;;;;;;;10.55;6.93;;;;;;;22.46;18.39;100369.84;5113112;28;20497;-68
2022/03/24 11:41:25;;;;;;;12.05;7.47;;;;;;;22.21;18.63;100361.28;5105772;28;20100;-68
2022/03/24 11:44:04;;;;;;;13.30;7.43;;;;;;;22.84;20.50;100358.00;5093517;28;20094;-68